createdAt,value
2023-03-21T00:01:28.668Z,10.70
2023-03-21T00:06:31.513Z,9.03
2023-03-21T00:11:34.358Z,10.07
2023-03-21T00:16:38.527Z,12.90
2023-03-21T00:22:06.021Z,13.43
2023-03-21T00:27:34.275Z,13.00
2023-03-21T05:35:53.610Z,11.23
2023-03-21T05:40:57.440Z,12.63
2023-03-21T05:46:00.301Z,10.80
2023-03-21T05:51:04.307Z,11.20
2023-03-21T05:56:07.679Z,10.67
2023-03-21T06:01:10.887Z,12.30
2023-03-21T06:06:13.699Z,10.83
2023-03-21T06:11:31.870Z,11.70
2023-03-21T06:16:34.739Z,13.73
2023-03-21T06:21:37.524Z,12.17
2023-03-21T06:26:42.418Z,12.17
2023-03-21T06:31:45.377Z,11.83
2023-03-21T06:36:48.215Z,10.50
2023-03-21T06:41:51.302Z,10.37
2023-03-21T06:46:54.428Z,11.03
2023-03-21T06:51:57.250Z,10.07
2023-03-21T06:57:00.043Z,9.77
2023-03-21T07:02:02.846Z,8.20
2023-03-21T07:07:05.829Z,9.60
2023-03-21T07:12:08.889Z,9.27
2023-03-21T07:17:11.755Z,9.83
2023-03-21T07:22:14.550Z,9.53
2023-03-21T07:27:18.364Z,9.20
2023-03-21T07:32:21.186Z,9.60
2023-03-21T07:37:24.060Z,9.50
2023-03-21T07:42:26.962Z,9.57
2023-03-21T07:47:29.751Z,9.40
2023-03-21T07:52:33.145Z,10.20
2023-03-21T07:57:36.648Z,11.50
2023-03-21T08:02:39.779Z,10.87
2023-03-21T08:07:42.694Z,11.50
2023-03-21T08:12:45.735Z,10.00
2023-03-21T08:17:48.627Z,10.63
2023-03-21T08:22:51.518Z,10.80
2023-03-21T08:27:54.318Z,9.87
2023-03-21T08:33:00.925Z,10.33
2023-03-21T08:38:04.854Z,11.47
2023-03-21T08:43:07.641Z,9.90
2023-03-21T08:48:10.581Z,10.90
2023-03-21T08:53:13.852Z,9.23
2023-03-21T08:58:17.134Z,10.07
2023-03-21T09:03:20.363Z,10.63
2023-03-21T09:08:23.464Z,12.13
2023-03-21T09:13:26.694Z,9.73
2023-03-21T09:18:47.078Z,11.37
2023-03-21T09:23:52.849Z,11.80
2023-03-21T09:28:56.604Z,10.43
2023-03-21T09:33:59.777Z,11.50
2023-03-21T09:39:04.145Z,11.30
2023-03-21T09:44:44.596Z,11.10
2023-03-21T09:50:14.011Z,12.93
2023-03-21T09:55:24.378Z,13.43
2023-03-21T10:00:36.302Z,10.90
2023-03-21T10:05:40.829Z,8.43
2023-03-21T10:11:01.227Z,9.80
2023-03-21T10:16:15.381Z,9.83
2023-03-21T10:26:50.818Z,10.40
2023-03-21T10:31:54.062Z,10.07
2023-03-21T10:36:56.963Z,10.30
2023-03-21T10:41:59.715Z,9.20
2023-03-21T10:47:09.967Z,10.10
2023-03-21T10:52:15.813Z,8.87
2023-03-21T10:57:23.198Z,9.43
2023-03-21T11:02:35.400Z,8.73
2023-03-21T11:07:38.293Z,10.77
2023-03-21T11:12:42.556Z,11.50
2023-03-21T11:17:47.802Z,9.73
2023-03-21T11:22:50.899Z,8.93
2023-03-21T11:27:55.497Z,10.23
2023-03-21T11:33:03.344Z,10.57
2023-03-21T11:38:09.994Z,10.63
2023-03-21T11:43:18.925Z,10.40
2023-03-21T11:48:22.020Z,8.23
2023-03-21T11:53:49.406Z,9.87
2023-03-21T11:59:17.343Z,8.20
2023-03-21T12:04:42.408Z,7.93
2023-03-21T12:10:26.958Z,8.23
2023-03-21T12:15:52.657Z,7.30
2023-03-21T12:21:09.956Z,7.73
2023-03-21T12:26:31.491Z,8.33
2023-03-21T12:31:37.275Z,7.87
2023-03-21T12:37:03.268Z,8.07
2023-03-21T12:42:42.110Z,8.10
2023-03-21T12:47:50.936Z,7.80
2023-03-21T12:53:02.036Z,9.10
2023-03-21T12:58:11.462Z,9.30
2023-03-21T13:03:27.683Z,14.23
2023-03-21T13:08:50.299Z,9.77
2023-03-21T13:13:53.010Z,11.40
2023-03-21T13:19:24.075Z,12.03
2023-03-21T13:24:32.694Z,10.33
2023-03-21T13:29:53.077Z,9.23
2023-03-21T13:34:58.120Z,8.20
2023-03-21T13:40:08.253Z,7.27
2023-03-21T13:45:23.017Z,7.93
2023-03-21T13:50:28.754Z,8.80
2023-03-21T13:55:41.474Z,9.73
2023-03-21T14:00:44.273Z,9.50
2023-03-21T14:05:51.260Z,9.37
2023-03-21T14:10:58.136Z,11.10
2023-03-21T14:16:07.704Z,14.17
2023-03-21T14:21:29.740Z,11.00
2023-03-21T14:26:35.454Z,12.30
2023-03-21T14:31:39.816Z,12.00
2023-03-21T14:36:48.496Z,10.97
2023-03-21T14:42:12.188Z,12.33
2023-03-21T14:47:23.413Z,10.50
2023-03-21T14:52:34.229Z,9.23
2023-03-21T14:57:37.416Z,11.60
2023-03-21T15:02:42.277Z,13.47
2023-03-21T15:08:00.494Z,10.50
2023-03-21T15:13:14.641Z,9.90
2023-03-21T15:18:25.928Z,11.77
2023-03-21T15:23:34.567Z,12.00
2023-03-21T15:28:37.988Z,7.67
2023-03-21T15:33:40.888Z,8.43
2023-03-21T15:38:45.624Z,7.10
2023-03-21T15:43:49.461Z,8.23
2023-03-21T15:49:27.673Z,9.93
2023-03-21T15:54:33.795Z,9.57
2023-03-21T15:59:41.394Z,9.97
2023-03-21T16:05:03.219Z,10.77
2023-03-21T16:10:08.897Z,10.27
2023-03-21T16:15:11.804Z,9.93
2023-03-21T16:20:21.326Z,9.90
2023-03-21T16:25:24.438Z,8.83
2023-03-21T16:30:27.466Z,9.57
2023-03-21T16:35:30.315Z,10.40
2023-03-21T16:40:39.808Z,9.93
2023-03-21T16:45:42.990Z,9.20
2023-03-21T16:50:49.537Z,9.67
2023-03-21T16:55:52.693Z,10.67
2023-03-21T17:00:55.612Z,9.50
2023-03-21T17:05:58.594Z,9.50
2023-03-21T17:11:06.316Z,9.23
2023-03-21T17:16:12.467Z,8.97
2023-03-21T17:21:20.762Z,8.87
2023-03-21T17:26:26.108Z,9.27
2023-03-21T17:31:33.976Z,9.10
2023-03-21T17:36:39.134Z,9.77
2023-03-21T17:41:42.024Z,9.47
2023-03-21T17:46:45.611Z,10.53
2023-03-21T17:51:48.494Z,10.07
2023-03-21T17:56:51.721Z,10.27
2023-03-21T18:01:54.850Z,12.50
2023-03-21T18:07:01.086Z,10.53
2023-03-21T18:12:04.893Z,12.30
2023-03-21T18:17:07.750Z,13.07
2023-03-21T18:22:11.229Z,13.77
2023-03-21T18:27:14.494Z,12.07
2023-03-21T18:32:17.313Z,12.80
2023-03-21T18:37:20.886Z,11.80
2023-03-21T18:42:30.559Z,12.13
2023-03-21T18:47:34.899Z,15.37
2023-03-21T18:52:37.762Z,14.03
2023-03-21T18:57:41.588Z,13.10
2023-03-21T19:02:49.083Z,12.33
2023-03-21T19:07:53.392Z,14.13
2023-03-21T19:12:57.054Z,12.57
2023-03-21T19:23:22.898Z,11.70
2023-03-21T19:28:25.809Z,12.23
2023-03-21T19:33:28.679Z,11.17
2023-03-21T19:38:31.450Z,11.63
2023-03-21T19:43:34.439Z,11.97
2023-03-21T19:48:38.567Z,15.23
2023-03-21T19:53:41.452Z,14.73
2023-03-21T19:58:44.557Z,14.97
2023-03-21T20:03:47.574Z,15.23
2023-03-21T20:09:41.422Z,13.17
2023-03-21T20:14:14.352Z,14.70
2023-03-21T20:19:17.265Z,16.03
2023-03-21T20:24:20.148Z,17.40
2023-03-21T20:34:46.829Z,15.20
2023-03-21T20:39:49.652Z,16.30
2023-03-21T20:44:58.771Z,12.70
2023-03-21T20:50:03.221Z,14.23
2023-03-21T20:55:09.154Z,16.33
2023-03-21T21:00:15.302Z,16.03
2023-03-21T21:05:30.087Z,16.43
2023-03-21T21:10:41.601Z,12.90
2023-03-21T21:15:56.686Z,14.70
2023-03-21T21:21:05.965Z,13.83
2023-03-21T21:26:11.043Z,15.30
2023-03-21T21:31:18.386Z,16.97
2023-03-21T21:36:22.722Z,16.70
2023-03-21T21:41:25.843Z,15.17
2023-03-21T21:46:28.790Z,16.03
2023-03-21T21:51:34.094Z,15.30
2023-03-21T21:56:38.170Z,14.30
2023-03-21T22:01:42.429Z,14.63
2023-03-21T22:06:47.535Z,14.20
2023-03-21T22:11:50.577Z,14.97
2023-03-21T22:16:53.398Z,12.90
2023-03-21T22:21:58.213Z,13.00
2023-03-21T22:27:01.023Z,14.57
2023-03-21T22:32:04.236Z,13.93
2023-03-21T22:37:07.158Z,15.37
2023-03-21T22:42:09.937Z,15.53
2023-03-21T22:47:12.950Z,15.53
2023-03-21T22:52:15.757Z,18.87
2023-03-21T22:57:20.636Z,20.67
2023-03-21T23:02:23.400Z,20.80
2023-03-21T23:07:26.160Z,20.87
2023-03-21T23:12:28.950Z,18.93
2023-03-21T23:17:33.872Z,18.60
2023-03-21T23:22:37.183Z,18.87
2023-03-21T23:27:40.086Z,19.50
2023-03-21T23:32:43.240Z,18.97
2023-03-21T23:37:52.389Z,19.13
2023-03-21T23:42:55.798Z,19.10
2023-03-21T23:47:58.621Z,18.73
2023-03-21T23:53:01.401Z,20.67
2023-03-21T23:58:05.752Z,17.97
